createdAt,value
2022-11-28T00:01:20.459Z,12.52
2022-11-28T00:03:46.831Z,12.50
2022-11-28T00:06:13.254Z,13.10
2022-11-28T00:08:39.632Z,12.30
2022-11-28T00:11:05.963Z,13.55
2022-11-28T00:13:32.293Z,12.05
2022-11-28T00:15:58.668Z,11.65
2022-11-28T00:18:25.013Z,12.13
2022-11-28T00:20:51.335Z,12.93
2022-11-28T00:23:17.646Z,12.23
2022-11-28T00:25:43.978Z,12.75
2022-11-28T00:28:10.290Z,12.48
2022-11-28T00:30:36.831Z,11.98
2022-11-28T00:33:03.138Z,12.63
2022-11-28T00:35:29.446Z,12.65
2022-11-28T00:37:55.776Z,12.70
2022-11-28T00:40:22.077Z,12.02
2022-11-28T00:42:48.429Z,12.18
2022-11-28T00:45:14.789Z,12.10
2022-11-28T00:47:41.140Z,12.30
2022-11-28T00:50:07.459Z,12.10
2022-11-28T00:52:33.807Z,11.38
2022-11-28T00:55:00.163Z,12.37
2022-11-28T00:57:26.475Z,11.43
2022-11-28T00:59:52.806Z,12.70
2022-11-28T01:02:19.223Z,11.32
2022-11-28T01:04:45.638Z,11.25
2022-11-28T01:07:12.005Z,11.60
2022-11-28T01:09:38.340Z,11.45
2022-11-28T01:12:04.645Z,12.02
2022-11-28T01:14:31.026Z,10.88
2022-11-28T01:16:57.449Z,10.98
2022-11-28T01:19:23.849Z,11.95
2022-11-28T01:21:50.261Z,10.80
2022-11-28T01:24:16.670Z,11.50
2022-11-28T01:26:43.008Z,11.02
2022-11-28T01:29:09.332Z,11.52
2022-11-28T01:31:35.878Z,10.85
2022-11-28T01:34:02.251Z,11.52
2022-11-28T01:36:28.579Z,12.07
2022-11-28T01:38:54.902Z,11.43
2022-11-28T01:41:21.237Z,11.55
2022-11-28T01:43:47.550Z,11.50
2022-11-28T01:46:13.908Z,11.88
2022-11-28T01:48:40.258Z,12.32
2022-11-28T01:51:06.578Z,13.15
2022-11-28T01:53:33.038Z,11.95
2022-11-28T01:55:59.392Z,11.43
2022-11-28T01:58:25.780Z,11.27
2022-11-28T02:00:52.185Z,12.30
2022-11-28T02:03:18.525Z,11.63
2022-11-28T02:05:44.885Z,11.30
2022-11-28T02:08:11.302Z,13.07
2022-11-28T02:10:37.632Z,11.88
2022-11-28T02:13:03.932Z,12.07
2022-11-28T02:15:30.343Z,12.50
2022-11-28T02:17:56.691Z,12.90
2022-11-28T02:20:23.016Z,12.93
2022-11-28T02:22:49.334Z,11.85
2022-11-28T02:25:15.915Z,11.85
2022-11-28T02:27:42.250Z,11.52
2022-11-28T02:30:08.585Z,12.02
2022-11-28T02:32:34.979Z,12.43
2022-11-28T02:35:01.313Z,12.07
2022-11-28T02:37:27.625Z,11.73
2022-11-28T02:39:53.990Z,12.10
2022-11-28T02:42:20.309Z,12.05
2022-11-28T02:44:46.627Z,12.07
2022-11-28T02:47:12.993Z,12.23
2022-11-28T02:49:39.356Z,11.80
2022-11-28T02:52:05.716Z,13.05
2022-11-28T02:54:32.621Z,10.80
2022-11-28T02:56:58.943Z,12.13
2022-11-28T02:59:25.253Z,12.40
2022-11-28T03:01:51.807Z,12.30
2022-11-28T03:04:18.157Z,11.52
2022-11-28T03:06:44.614Z,12.43
2022-11-28T03:09:10.987Z,12.55
2022-11-28T03:11:37.303Z,12.35
2022-11-28T03:14:03.614Z,11.55
2022-11-28T03:16:30.100Z,11.25
2022-11-28T03:18:56.458Z,11.85
2022-11-28T03:21:22.774Z,11.85
2022-11-28T03:23:49.098Z,11.20
2022-11-28T03:26:15.415Z,11.65
2022-11-28T03:28:43.763Z,11.65
2022-11-28T03:31:10.312Z,11.05
2022-11-28T03:33:36.663Z,10.77
2022-11-28T03:36:03.009Z,12.90
2022-11-28T03:38:29.319Z,10.68
2022-11-28T03:40:55.634Z,11.88
2022-11-28T03:43:21.977Z,11.07
2022-11-28T03:45:48.319Z,10.82
2022-11-28T03:48:14.676Z,10.77
2022-11-28T03:50:41.009Z,12.25
2022-11-28T03:53:07.331Z,11.10
2022-11-28T03:55:33.707Z,11.63
2022-11-28T03:58:00.076Z,10.73
2022-11-28T04:00:26.451Z,11.35
2022-11-28T04:02:52.882Z,11.45
2022-11-28T04:05:19.246Z,11.20
2022-11-28T04:07:45.626Z,10.75
2022-11-28T04:10:12.029Z,11.90
2022-11-28T04:12:38.470Z,11.38
2022-11-28T04:15:04.792Z,12.23
2022-11-28T04:17:31.081Z,11.63
2022-11-28T04:19:57.406Z,11.85
2022-11-28T04:22:23.717Z,11.45
2022-11-28T04:24:50.024Z,12.00
2022-11-28T04:27:16.378Z,12.48
2022-11-28T04:29:42.696Z,11.60
2022-11-28T04:32:09.009Z,11.98
2022-11-28T04:34:35.346Z,12.48
2022-11-28T04:37:05.482Z,11.18
2022-11-28T04:39:34.859Z,11.32
2022-11-28T04:42:01.195Z,11.95
2022-11-28T04:44:27.531Z,11.00
2022-11-28T04:46:54.009Z,12.55
2022-11-28T04:49:20.324Z,11.90
2022-11-28T04:51:46.780Z,11.65
2022-11-28T04:54:13.099Z,11.12
2022-11-28T04:56:39.466Z,11.73
2022-11-28T04:59:06.142Z,11.73
2022-11-28T05:01:32.560Z,12.15
2022-11-28T05:03:58.881Z,11.60
2022-11-28T05:06:25.232Z,12.85
2022-11-28T05:08:51.552Z,12.15
2022-11-28T05:11:17.875Z,11.45
2022-11-28T05:13:44.862Z,12.00
2022-11-28T05:16:11.236Z,11.88
2022-11-28T05:18:37.589Z,11.68
2022-11-28T05:21:06.783Z,12.13
2022-11-28T05:23:33.136Z,12.52
2022-11-28T05:25:59.441Z,11.80
2022-11-28T05:28:25.788Z,11.65
2022-11-28T05:30:52.087Z,12.50
2022-11-28T05:33:18.417Z,13.00
2022-11-28T05:35:44.720Z,12.48
2022-11-28T05:38:13.661Z,12.85
2022-11-28T05:40:44.496Z,12.18
2022-11-28T05:43:10.914Z,12.20
2022-11-28T05:45:37.311Z,12.98
2022-11-28T05:48:03.703Z,13.13
2022-11-28T05:50:30.023Z,12.60
2022-11-28T05:52:56.354Z,11.80
2022-11-28T05:55:22.744Z,12.57
2022-11-28T05:57:49.133Z,12.85
2022-11-28T06:00:15.453Z,12.73
2022-11-28T06:02:41.778Z,11.12
2022-11-28T06:05:27.670Z,13.00
2022-11-28T06:07:54.421Z,12.82
2022-11-28T06:10:22.580Z,11.35
2022-11-28T06:12:48.907Z,12.37
2022-11-28T06:15:15.217Z,11.65
2022-11-28T06:17:41.529Z,11.45
2022-11-28T06:20:08.759Z,11.93
2022-11-28T06:22:35.078Z,13.05
2022-11-28T06:25:01.439Z,11.60
2022-11-28T06:27:27.808Z,12.13
2022-11-28T06:29:54.117Z,12.43
2022-11-28T06:32:22.162Z,11.57
2022-11-28T06:34:48.685Z,12.68
2022-11-28T06:37:15.007Z,11.10
2022-11-28T06:39:41.632Z,13.18
2022-11-28T06:42:08.152Z,12.40
2022-11-28T06:44:34.529Z,12.13
2022-11-28T06:47:00.832Z,12.05
2022-11-28T06:49:27.176Z,11.32
2022-11-28T06:51:53.485Z,11.40
2022-11-28T06:54:20.043Z,11.77
2022-11-28T06:56:46.440Z,13.48
2022-11-28T06:59:13.114Z,11.48
2022-11-28T07:01:39.510Z,12.15
2022-11-28T07:04:05.896Z,10.52
2022-11-28T07:06:32.222Z,11.68
2022-11-28T07:08:58.541Z,11.50
2022-11-28T07:11:24.896Z,11.43
2022-11-28T07:13:51.490Z,11.77
2022-11-28T07:16:17.810Z,11.20
2022-11-28T07:18:44.226Z,11.35
2022-11-28T07:21:10.610Z,11.45
2022-11-28T07:23:37.238Z,10.93
2022-11-28T07:26:03.556Z,10.73
2022-11-28T07:28:29.941Z,9.98
2022-11-28T07:30:56.288Z,11.00
2022-11-28T07:33:22.602Z,10.68
2022-11-28T07:35:48.916Z,11.05
2022-11-28T07:38:15.235Z,10.90
2022-11-28T07:40:41.837Z,10.88
2022-11-28T07:43:08.147Z,9.68
2022-11-28T07:45:58.958Z,10.20
2022-11-28T07:48:20.894Z,10.23
2022-11-28T07:50:47.256Z,10.10
2022-11-28T07:53:13.558Z,10.30
2022-11-28T07:55:39.919Z,11.15
2022-11-28T07:58:06.287Z,9.40
2022-11-28T08:00:32.616Z,10.23
2022-11-28T08:02:58.949Z,10.60
2022-11-28T08:05:25.290Z,8.20
2022-11-28T08:07:51.720Z,10.63
2022-11-28T08:10:18.076Z,10.82
2022-11-28T08:12:44.419Z,9.90
2022-11-28T08:15:10.744Z,10.52
2022-11-28T08:17:37.066Z,9.98
2022-11-28T08:20:03.393Z,11.05
2022-11-28T08:22:29.706Z,10.93
2022-11-28T08:24:56.030Z,10.00
2022-11-28T08:27:22.364Z,10.35
2022-11-28T08:29:52.044Z,10.73
2022-11-28T08:32:20.469Z,10.70
2022-11-28T08:34:46.821Z,10.75
2022-11-28T08:37:13.174Z,10.48
2022-11-28T08:39:39.481Z,10.45
2022-11-28T08:42:05.780Z,9.75
2022-11-28T08:44:32.114Z,11.88
2022-11-28T08:46:58.463Z,10.82
2022-11-28T08:49:24.798Z,10.57
2022-11-28T08:51:51.120Z,11.23
2022-11-28T08:54:17.448Z,10.25
2022-11-28T08:56:45.354Z,10.27
2022-11-28T08:59:11.672Z,11.00
2022-11-28T09:01:39.671Z,9.77
2022-11-28T09:04:06.110Z,9.65
2022-11-28T09:06:32.526Z,11.75
2022-11-28T09:08:58.883Z,10.50
2022-11-28T09:11:25.228Z,11.68
2022-11-28T09:13:51.577Z,11.63
2022-11-28T09:16:17.986Z,10.88
2022-11-28T09:18:44.541Z,10.85
2022-11-28T09:21:11.675Z,10.85
2022-11-28T09:23:38.064Z,11.82
2022-11-28T09:26:04.397Z,11.85
2022-11-28T09:28:30.746Z,10.93
2022-11-28T09:30:57.118Z,10.70
2022-11-28T09:33:23.610Z,11.82
2022-11-28T09:35:49.918Z,12.40
2022-11-28T09:38:16.353Z,11.48
2022-11-28T09:40:42.665Z,11.52
2022-11-28T09:43:08.982Z,11.98
2022-11-28T09:45:36.351Z,11.70
2022-11-28T09:48:02.654Z,10.77
2022-11-28T09:50:28.990Z,11.48
2022-11-28T09:52:55.408Z,11.48
2022-11-28T09:55:21.842Z,12.07
2022-11-28T09:57:48.251Z,10.82
2022-11-28T10:00:17.704Z,12.15
2022-11-28T10:02:44.093Z,12.85
2022-11-28T10:05:10.476Z,11.70
2022-11-28T10:07:36.912Z,12.70
2022-11-28T10:10:03.281Z,12.52
2022-11-28T10:12:29.652Z,12.82
2022-11-28T10:14:55.970Z,13.07
2022-11-28T10:17:22.338Z,12.43
2022-11-28T10:19:55.896Z,11.23
2022-11-28T10:22:22.353Z,12.57
2022-11-28T10:24:48.683Z,12.68
2022-11-28T10:27:15.075Z,13.05
2022-11-28T10:29:41.763Z,13.80
2022-11-28T10:32:08.360Z,12.88
2022-11-28T10:34:34.680Z,13.30
2022-11-28T10:37:01.408Z,13.00
2022-11-28T10:39:27.713Z,13.00
2022-11-28T10:42:11.752Z,13.82
2022-11-28T10:44:38.119Z,12.75
2022-11-28T10:47:04.472Z,12.45
2022-11-28T10:49:30.854Z,12.63
2022-11-28T10:51:57.239Z,13.68
2022-11-28T10:54:23.549Z,12.52
2022-11-28T10:56:49.868Z,11.07
2022-11-28T10:59:16.667Z,13.23
2022-11-28T11:01:47.348Z,13.57
2022-11-28T11:04:16.455Z,12.23
2022-11-28T11:07:06.809Z,12.27
2022-11-28T11:09:29.318Z,13.02
2022-11-28T11:11:55.633Z,14.23
2022-11-28T11:14:21.956Z,14.38
2022-11-28T11:16:48.770Z,14.05
2022-11-28T11:19:15.184Z,13.52
2022-11-28T11:21:41.515Z,13.38
2022-11-28T11:24:07.922Z,13.10
2022-11-28T11:26:34.256Z,13.50
2022-11-28T11:29:01.505Z,13.73
2022-11-28T11:31:27.940Z,13.65
2022-11-28T11:33:54.381Z,13.20
2022-11-28T11:36:21.375Z,12.43
2022-11-28T11:38:47.694Z,15.05
2022-11-28T11:41:14.001Z,13.55
2022-11-28T11:43:40.418Z,12.82
2022-11-28T11:46:06.805Z,13.73
2022-11-28T11:48:33.146Z,13.50
2022-11-28T11:50:59.465Z,13.48
2022-11-28T11:53:25.790Z,14.38
2022-11-28T11:55:52.113Z,14.50
2022-11-28T11:58:18.435Z,14.15
2022-11-28T12:00:45.843Z,13.05
2022-11-28T12:03:12.295Z,13.62
2022-11-28T12:06:06.138Z,14.30
2022-11-28T12:08:25.237Z,14.27
2022-11-28T12:10:51.549Z,14.18
2022-11-28T12:13:17.886Z,13.20
2022-11-28T12:15:44.312Z,14.02
2022-11-28T12:18:10.703Z,13.43
2022-11-28T12:20:37.131Z,14.73
2022-11-28T12:23:03.576Z,14.05
2022-11-28T12:25:29.922Z,14.10
2022-11-28T12:27:56.587Z,13.77
2022-11-28T12:30:23.004Z,14.73
2022-11-28T12:32:49.481Z,15.00
2022-11-28T12:35:15.867Z,15.68
2022-11-28T12:38:09.761Z,13.15
2022-11-28T12:40:28.547Z,13.38
2022-11-28T12:42:54.927Z,14.38
2022-11-28T12:45:21.278Z,14.52
2022-11-28T12:47:47.632Z,13.88
2022-11-28T12:50:13.983Z,13.98
2022-11-28T12:52:40.349Z,13.57
2022-11-28T12:55:06.697Z,14.00
2022-11-28T12:57:33.569Z,14.30
2022-11-28T13:00:05.032Z,13.65
2022-11-28T13:02:34.748Z,14.55
2022-11-28T13:05:01.260Z,14.07
2022-11-28T13:07:27.651Z,14.68
2022-11-28T13:09:54.024Z,14.38
2022-11-28T13:12:20.430Z,14.13
2022-11-28T13:14:46.987Z,14.50
2022-11-28T13:17:13.604Z,14.77
2022-11-28T13:19:39.963Z,13.35
2022-11-28T13:22:06.356Z,15.50
2022-11-28T13:24:32.708Z,14.38
2022-11-28T13:27:00.419Z,14.82
2022-11-28T13:29:27.009Z,13.60
2022-11-28T13:31:56.133Z,13.35
2022-11-28T13:34:26.736Z,13.65
2022-11-28T13:39:40.323Z,13.07
2022-11-28T13:42:28.776Z,12.52
2022-11-28T13:44:52.984Z,9.43
2022-11-28T13:47:19.299Z,13.23
2022-11-28T13:49:45.608Z,13.57
2022-11-28T13:52:11.943Z,14.48
2022-11-28T13:54:38.390Z,14.75
2022-11-28T13:57:04.784Z,14.23
2022-11-28T13:59:31.105Z,15.55
2022-11-28T14:01:57.487Z,16.67
2022-11-28T14:04:23.863Z,15.57
2022-11-28T14:06:52.218Z,16.23
2022-11-28T14:09:19.163Z,15.45
2022-11-28T14:11:46.703Z,15.93
2022-11-28T14:14:13.274Z,14.68
2022-11-28T14:16:39.762Z,14.77
2022-11-28T14:19:06.871Z,14.27
2022-11-28T14:21:33.227Z,15.43
2022-11-28T14:23:59.566Z,14.57
2022-11-28T14:26:29.156Z,14.85
2022-11-28T14:28:55.466Z,14.05
2022-11-28T14:31:21.848Z,13.23
2022-11-28T14:33:48.233Z,14.15
2022-11-28T14:36:14.690Z,13.68
2022-11-28T14:38:41.022Z,14.93
2022-11-28T14:41:09.220Z,12.95
2022-11-28T14:43:35.588Z,13.25
2022-11-28T14:46:01.911Z,13.10
2022-11-28T14:48:29.051Z,13.27
2022-11-28T14:51:01.373Z,13.70
2022-11-28T14:53:28.334Z,13.20
2022-11-28T14:55:58.133Z,13.18
2022-11-28T14:58:24.482Z,13.50
2022-11-28T15:00:50.859Z,13.23
2022-11-28T15:03:17.352Z,13.45
2022-11-28T15:05:43.809Z,14.35
2022-11-28T15:08:10.183Z,13.38
2022-11-28T15:10:36.662Z,13.98
2022-11-28T15:13:03.165Z,14.63
2022-11-28T15:15:29.793Z,16.12
2022-11-28T15:17:56.177Z,14.20
2022-11-28T15:20:22.589Z,13.50
2022-11-28T15:22:49.374Z,14.10
2022-11-28T15:25:15.690Z,14.40
2022-11-28T15:27:41.997Z,14.15
2022-11-28T15:30:08.462Z,14.50
2022-11-28T15:32:34.762Z,14.90
2022-11-28T15:35:01.222Z,14.32
2022-11-28T15:37:27.573Z,14.48
2022-11-28T15:39:53.962Z,15.07
2022-11-28T15:42:20.283Z,15.77
2022-11-28T15:44:46.628Z,15.10
2022-11-28T15:47:12.952Z,15.68
2022-11-28T15:49:41.181Z,14.32
2022-11-28T15:52:07.504Z,15.60
2022-11-28T15:54:33.859Z,15.82
2022-11-28T15:57:00.175Z,16.45
2022-11-28T15:59:26.489Z,15.57
2022-11-28T16:01:57.826Z,15.02
2022-11-28T16:04:25.994Z,17.08
2022-11-28T16:06:52.333Z,14.32
2022-11-28T16:09:18.654Z,16.27
2022-11-28T16:11:44.973Z,15.40
2022-11-28T16:14:11.344Z,15.73
2022-11-28T16:16:37.788Z,14.60
2022-11-28T16:19:04.203Z,15.82
2022-11-28T16:21:30.571Z,15.73
2022-11-28T16:23:57.067Z,15.30
2022-11-28T16:26:23.412Z,16.08
2022-11-28T16:28:49.822Z,16.25
2022-11-28T16:31:16.313Z,16.25
2022-11-28T16:33:42.710Z,16.58
2022-11-28T16:36:09.027Z,16.73
2022-11-28T16:38:35.334Z,17.37
2022-11-28T16:41:01.724Z,18.17
2022-11-28T16:43:28.062Z,18.05
2022-11-28T16:45:54.425Z,17.58
2022-11-28T16:48:21.817Z,16.83
2022-11-28T16:50:48.137Z,18.05
2022-11-28T16:53:14.478Z,17.73
2022-11-28T16:55:40.853Z,17.52
2022-11-28T16:58:07.515Z,18.85
2022-11-28T17:00:33.837Z,17.87
2022-11-28T17:03:00.189Z,17.65
2022-11-28T17:05:26.514Z,19.05
2022-11-28T17:07:52.858Z,17.87
2022-11-28T17:10:19.195Z,18.55
2022-11-28T17:12:45.503Z,18.25
2022-11-28T17:15:11.836Z,18.40
2022-11-28T17:17:38.158Z,17.55
2022-11-28T17:20:04.469Z,18.65
2022-11-28T17:22:31.160Z,17.37
2022-11-28T17:24:59.260Z,13.20
2022-11-28T17:27:25.576Z,17.70
2022-11-28T17:29:52.175Z,17.62
2022-11-28T17:32:18.495Z,17.55
2022-11-28T17:34:46.227Z,17.87
2022-11-28T17:37:15.273Z,18.86
2022-11-28T17:40:01.609Z,17.85
2022-11-28T17:42:27.950Z,18.08
2022-11-28T17:44:54.304Z,17.60
2022-11-28T17:47:20.623Z,18.40
2022-11-28T17:49:47.006Z,18.35
2022-11-28T17:52:13.445Z,19.08
2022-11-28T17:54:39.783Z,18.05
2022-11-28T17:57:06.103Z,19.15
2022-11-28T17:59:34.378Z,17.95
2022-11-28T18:02:00.782Z,19.30
2022-11-28T18:04:27.150Z,19.00
2022-11-28T18:06:53.593Z,17.95
2022-11-28T18:09:20.051Z,18.45
2022-11-28T18:11:46.852Z,18.62
2022-11-28T18:14:13.175Z,19.25
2022-11-28T18:16:44.063Z,18.33
2022-11-28T18:19:10.559Z,18.80
2022-11-28T18:21:36.897Z,17.95
2022-11-28T18:24:04.756Z,18.12
2022-11-28T18:26:31.060Z,18.42
2022-11-28T18:28:57.416Z,17.70
2022-11-28T18:31:23.783Z,18.67
2022-11-28T18:33:50.162Z,18.15
2022-11-28T18:36:16.488Z,17.60
2022-11-28T18:38:44.808Z,19.05
2022-11-28T18:41:11.315Z,16.37
2022-11-28T18:43:37.655Z,16.05
2022-11-28T18:46:08.052Z,18.55
2022-11-28T18:48:34.502Z,18.58
2022-11-28T18:51:00.969Z,17.87
2022-11-28T18:53:27.351Z,18.50
2022-11-28T18:55:53.671Z,18.98
2022-11-28T18:58:19.997Z,17.73
2022-11-28T19:00:46.345Z,18.62
2022-11-28T19:03:12.710Z,17.37
2022-11-28T19:05:39.444Z,17.58
2022-11-28T19:08:05.876Z,17.35
2022-11-28T19:10:32.194Z,18.67
2022-11-28T19:12:58.557Z,18.50
2022-11-28T19:15:24.879Z,19.23
2022-11-28T19:17:51.322Z,18.75
2022-11-28T19:20:18.400Z,17.70
2022-11-28T19:22:44.885Z,17.60
2022-11-28T19:25:11.205Z,17.87
2022-11-28T19:27:37.590Z,16.95
2022-11-28T19:30:03.906Z,18.23
2022-11-28T19:32:30.298Z,18.48
2022-11-28T19:34:56.716Z,18.45
2022-11-28T19:37:23.054Z,18.35
2022-11-28T19:39:49.371Z,19.08
2022-11-28T19:42:16.381Z,17.30
2022-11-28T19:44:42.695Z,17.73
2022-11-28T19:47:09.118Z,18.65
2022-11-28T19:49:35.492Z,19.60
2022-11-28T19:52:01.802Z,18.27
2022-11-28T19:54:28.209Z,18.87
2022-11-28T19:56:54.616Z,19.62
2022-11-28T19:59:20.961Z,18.65
2022-11-28T20:01:49.992Z,18.48
2022-11-28T20:04:16.505Z,18.52
2022-11-28T20:06:42.857Z,19.85
2022-11-28T20:09:09.224Z,19.75
2022-11-28T20:11:35.586Z,19.37
2022-11-28T20:14:01.936Z,19.42
2022-11-28T20:16:28.305Z,20.33
2022-11-28T20:18:54.791Z,19.05
2022-11-28T20:21:21.401Z,19.15
2022-11-28T20:23:47.742Z,19.60
2022-11-28T20:26:14.076Z,19.25
2022-11-28T20:28:40.383Z,19.05
2022-11-28T20:31:06.833Z,18.52
2022-11-28T20:33:33.135Z,19.05
2022-11-28T20:36:00.060Z,19.27
2022-11-28T20:38:26.425Z,19.37
2022-11-28T20:40:52.961Z,19.23
2022-11-28T20:43:19.306Z,18.25
2022-11-28T20:45:45.684Z,18.65
2022-11-28T20:48:12.021Z,18.80
2022-11-28T20:50:38.329Z,18.45
2022-11-28T20:53:04.667Z,18.87
2022-11-28T20:55:30.978Z,17.83
2022-11-28T20:57:57.299Z,17.58
2022-11-28T21:00:26.707Z,19.15
2022-11-28T21:02:53.319Z,19.87
2022-11-28T21:05:19.900Z,20.98
2022-11-28T21:07:46.480Z,19.25
2022-11-28T21:10:12.825Z,18.95
2022-11-28T21:12:39.139Z,18.80
2022-11-28T21:15:05.475Z,19.85
2022-11-28T21:17:32.867Z,19.55
2022-11-28T21:19:59.194Z,20.40
2022-11-28T21:22:25.511Z,19.52
2022-11-28T21:24:51.878Z,19.17
2022-11-28T21:27:18.215Z,19.12
2022-11-28T21:29:45.738Z,19.27
2022-11-28T21:32:13.691Z,19.60
2022-11-28T21:34:40.056Z,19.42
2022-11-28T21:37:06.378Z,17.95
2022-11-28T21:39:32.904Z,19.08
2022-11-28T21:41:59.206Z,19.05
2022-11-28T21:44:25.525Z,18.70
2022-11-28T21:46:51.839Z,18.50
2022-11-28T21:49:18.244Z,19.52
2022-11-28T21:51:44.561Z,20.12
2022-11-28T21:54:10.951Z,20.33
2022-11-28T21:56:37.291Z,19.80
2022-11-28T21:59:04.461Z,19.35
2022-11-28T22:01:30.815Z,20.35
2022-11-28T22:04:02.155Z,21.17
2022-11-28T22:06:29.374Z,20.08
2022-11-28T22:08:55.730Z,21.08
2022-11-28T22:11:22.106Z,20.30
2022-11-28T22:13:49.004Z,20.48
2022-11-28T22:16:15.441Z,20.83
2022-11-28T22:18:41.843Z,22.13
2022-11-28T22:21:28.493Z,21.77
2022-11-28T22:23:55.221Z,21.70
2022-11-28T22:26:21.838Z,20.58
2022-11-28T22:28:53.529Z,21.25
2022-11-28T22:31:20.621Z,21.67
2022-11-28T22:33:47.034Z,21.25
2022-11-28T22:36:13.799Z,22.13
2022-11-28T22:38:40.116Z,22.20
2022-11-28T22:41:06.434Z,22.17
2022-11-28T22:43:32.751Z,21.40
2022-11-28T22:45:59.176Z,22.10
2022-11-28T22:48:25.627Z,20.83
2022-11-28T22:50:51.988Z,20.75
2022-11-28T22:53:18.318Z,20.25
2022-11-28T22:55:44.656Z,21.02
2022-11-28T22:58:10.971Z,19.25
2022-11-28T23:00:37.394Z,19.70
2022-11-28T23:03:03.847Z,20.45
2022-11-28T23:05:30.238Z,19.45
2022-11-28T23:07:56.638Z,21.25
2022-11-28T23:10:23.021Z,20.67
2022-11-28T23:12:49.432Z,20.98
2022-11-28T23:15:15.845Z,21.92
2022-11-28T23:17:42.256Z,21.35
2022-11-28T23:20:08.566Z,20.20
2022-11-28T23:22:35.863Z,20.95
2022-11-28T23:25:02.161Z,21.17
2022-11-28T23:27:28.488Z,19.55
2022-11-28T23:29:54.859Z,20.73
2022-11-28T23:32:21.176Z,20.60
2022-11-28T23:34:50.559Z,21.37
2022-11-28T23:37:16.885Z,21.33
2022-11-28T23:39:43.244Z,22.08
2022-11-28T23:42:09.563Z,20.90
2022-11-28T23:44:35.889Z,20.00
2022-11-28T23:47:02.252Z,19.87
2022-11-28T23:49:28.637Z,19.25
2022-11-28T23:51:54.982Z,20.83
2022-11-28T23:54:21.295Z,20.35
2022-11-28T23:56:47.650Z,20.62
2022-11-28T23:59:14.033Z,21.05
